createdAt,value
2019-03-30T00:00:01.410Z,40.88
2019-03-30T00:02:35.720Z,37.55
2019-03-30T00:05:07.409Z,47.00
2019-03-30T00:07:38.548Z,33.63
2019-03-30T00:10:10.223Z,26.75
2019-03-30T00:12:41.654Z,30.90
2019-03-30T00:15:12.752Z,23.38
2019-03-30T00:17:43.892Z,27.05
2019-03-30T00:20:15.018Z,26.30
2019-03-30T00:22:46.140Z,23.05
2019-03-30T00:25:18.218Z,23.47
2019-03-30T00:27:50.088Z,25.13
2019-03-30T00:30:22.476Z,25.52
2019-03-30T00:32:53.837Z,27.17
2019-03-30T00:35:25.123Z,26.52
2019-03-30T00:38:00.335Z,23.92
2019-03-30T00:40:31.711Z,23.52
2019-03-30T00:43:04.250Z,20.82
2019-03-30T00:45:35.974Z,24.40
2019-03-30T00:48:07.042Z,22.13
2019-03-30T00:50:38.692Z,23.57
2019-03-30T00:53:10.260Z,20.73
2019-03-30T00:55:41.414Z,24.30
2019-03-30T00:58:13.770Z,24.55
2019-03-30T01:00:45.539Z,22.65
2019-03-30T01:03:16.710Z,19.57
2019-03-30T01:05:47.865Z,20.97
2019-03-30T01:08:19.393Z,21.73
2019-03-30T01:10:50.577Z,23.60
2019-03-30T01:13:22.194Z,21.35
2019-03-30T01:15:53.733Z,27.15
2019-03-30T01:18:25.744Z,22.40
2019-03-30T01:20:56.908Z,23.73
2019-03-30T01:23:27.967Z,21.55
2019-03-30T01:25:59.447Z,23.25
2019-03-30T01:28:30.753Z,23.12
2019-03-30T01:31:01.905Z,21.23
2019-03-30T01:33:33.586Z,27.55
2019-03-30T01:36:04.902Z,24.18
2019-03-30T01:38:36.582Z,26.93
2019-03-30T01:41:09.454Z,23.20
2019-03-30T01:43:40.576Z,20.65
2019-03-30T01:46:14.051Z,22.48
2019-03-30T01:48:45.160Z,23.02
2019-03-30T01:51:16.631Z,21.15
2019-03-30T01:53:48.106Z,20.17
2019-03-30T01:56:19.997Z,20.90
2019-03-30T01:58:53.371Z,21.70
2019-03-30T02:01:24.930Z,21.80
2019-03-30T02:03:58.684Z,19.67
2019-03-30T02:06:30.156Z,20.60
2019-03-30T02:09:01.263Z,19.70
2019-03-30T02:11:32.439Z,20.08
2019-03-30T02:14:04.305Z,18.67
2019-03-30T02:16:36.827Z,18.62
2019-03-30T02:19:08.450Z,20.67
2019-03-30T02:21:44.412Z,19.57
2019-03-30T02:24:15.922Z,20.95
2019-03-30T02:26:47.310Z,20.17
2019-03-30T02:29:18.983Z,19.77
2019-03-30T02:31:51.622Z,19.37
2019-03-30T02:34:23.763Z,19.23
2019-03-30T02:36:54.934Z,19.20
2019-03-30T02:39:26.505Z,21.23
2019-03-30T02:41:58.122Z,20.48
2019-03-30T02:44:29.221Z,20.70
2019-03-30T02:47:01.340Z,20.17
2019-03-30T02:49:33.304Z,21.17
2019-03-30T02:52:04.529Z,19.23
2019-03-30T02:54:37.856Z,20.65
2019-03-30T02:57:10.638Z,19.43
2019-03-30T02:59:42.306Z,19.10
2019-03-30T03:02:13.946Z,20.27
2019-03-30T03:04:45.529Z,21.90
2019-03-30T03:07:17.155Z,20.23
2019-03-30T03:09:48.179Z,19.62
2019-03-30T03:12:19.186Z,20.85
2019-03-30T03:14:50.407Z,22.15
2019-03-30T03:17:21.535Z,22.42
2019-03-30T03:19:53.006Z,21.25
2019-03-30T03:22:24.719Z,20.88
2019-03-30T03:24:56.126Z,24.92
2019-03-30T03:27:27.242Z,20.45
2019-03-30T03:29:58.803Z,20.17
2019-03-30T03:32:30.353Z,20.55
2019-03-30T03:35:01.876Z,20.08
2019-03-30T03:37:44.452Z,19.80
2019-03-30T03:40:07.239Z,19.82
2019-03-30T03:42:38.398Z,22.27
2019-03-30T03:45:10.363Z,19.98
2019-03-30T03:47:41.459Z,21.20
2019-03-30T03:50:28.805Z,20.85
2019-03-30T03:52:59.817Z,20.77
2019-03-30T03:55:31.938Z,20.27
2019-03-30T03:58:04.765Z,21.07
2019-03-30T04:00:36.636Z,20.08
2019-03-30T04:03:10.685Z,22.45
2019-03-30T04:05:45.777Z,20.23
2019-03-30T04:08:17.877Z,20.68
2019-03-30T04:10:51.983Z,19.65
2019-03-30T04:13:26.988Z,20.55
2019-03-30T04:15:58.246Z,21.15
2019-03-30T04:18:30.348Z,21.23
2019-03-30T04:21:01.474Z,21.12
2019-03-30T04:23:32.811Z,20.40
2019-03-30T04:26:03.961Z,20.50
2019-03-30T04:28:35.260Z,20.27
2019-03-30T04:31:07.188Z,21.35
2019-03-30T04:33:38.195Z,22.73
2019-03-30T04:36:09.348Z,21.73
2019-03-30T04:38:40.491Z,19.02
2019-03-30T04:41:12.011Z,19.65
2019-03-30T04:43:43.935Z,19.60
2019-03-30T04:46:15.160Z,21.85
2019-03-30T04:48:46.299Z,23.02
2019-03-30T04:51:17.600Z,19.92
2019-03-30T04:53:49.019Z,42.37
2019-03-30T04:56:20.170Z,23.73
2019-03-30T04:58:51.831Z,23.07
2019-03-30T05:01:23.863Z,30.12
2019-03-30T05:03:54.947Z,24.47
2019-03-30T05:06:28.544Z,26.10
2019-03-30T05:08:59.954Z,29.18
2019-03-30T05:11:31.023Z,23.45
2019-03-30T05:14:04.027Z,22.22
2019-03-30T05:16:35.064Z,21.02
2019-03-30T05:19:06.207Z,23.30
2019-03-30T05:21:37.443Z,22.80
2019-03-30T05:24:08.493Z,22.05
2019-03-30T05:26:39.965Z,23.10
2019-03-30T05:29:11.163Z,19.98
2019-03-30T05:31:42.755Z,20.17
2019-03-30T05:34:15.535Z,26.40
2019-03-30T05:36:46.757Z,22.30
2019-03-30T05:39:17.852Z,20.30
2019-03-30T05:41:48.987Z,21.97
2019-03-30T05:44:23.030Z,23.00
2019-03-30T05:46:54.414Z,21.73
2019-03-30T05:49:26.564Z,25.57
2019-03-30T05:51:57.738Z,22.37
2019-03-30T05:54:28.847Z,22.55
2019-03-30T05:57:00.443Z,22.80
2019-03-30T05:59:31.696Z,26.62
2019-03-30T06:02:05.290Z,21.53
2019-03-30T06:04:36.334Z,20.60
2019-03-30T06:07:07.550Z,21.73
2019-03-30T06:09:45.552Z,22.22
2019-03-30T06:12:18.166Z,24.65
2019-03-30T06:14:50.056Z,21.93
2019-03-30T06:17:21.694Z,25.12
2019-03-30T06:19:52.937Z,22.07
2019-03-30T06:22:24.169Z,24.45
2019-03-30T06:24:57.662Z,22.60
2019-03-30T06:27:31.803Z,23.60
2019-03-30T06:30:17.031Z,21.90
2019-03-30T06:32:49.021Z,23.40
2019-03-30T06:35:20.767Z,25.37
2019-03-30T06:37:59.102Z,29.20
2019-03-30T06:40:29.473Z,24.50
2019-03-30T06:43:00.863Z,24.60
2019-03-30T06:45:33.229Z,25.80
2019-03-30T06:48:04.996Z,23.85
2019-03-30T06:50:36.265Z,23.73
2019-03-30T06:53:08.228Z,22.37
2019-03-30T06:55:39.336Z,25.62
2019-03-30T06:58:10.409Z,25.12
2019-03-30T07:00:42.131Z,25.15
2019-03-30T07:03:13.636Z,24.12
2019-03-30T07:05:45.066Z,25.48
2019-03-30T07:08:17.792Z,27.07
2019-03-30T07:10:49.167Z,23.87
2019-03-30T07:13:21.727Z,26.80
2019-03-30T07:15:58.024Z,29.75
2019-03-30T07:18:29.362Z,28.35
2019-03-30T07:21:00.639Z,30.43
2019-03-30T07:23:32.865Z,32.15
2019-03-30T07:26:04.210Z,29.75
2019-03-30T07:28:35.923Z,29.55
2019-03-30T07:31:07.369Z,28.15
2019-03-30T07:33:41.931Z,30.90
2019-03-30T07:36:12.489Z,32.55
2019-03-30T07:38:44.485Z,37.08
2019-03-30T07:41:15.815Z,35.30
2019-03-30T07:43:48.588Z,37.55
2019-03-30T07:46:20.180Z,40.12
2019-03-30T07:48:53.920Z,37.25
2019-03-30T07:51:25.716Z,43.38
2019-03-30T07:53:57.628Z,42.17
2019-03-30T07:56:28.937Z,40.85
2019-03-30T07:59:00.292Z,44.13
2019-03-30T08:01:31.493Z,46.42
2019-03-30T08:04:04.862Z,45.17
2019-03-30T08:06:35.998Z,45.55
2019-03-30T08:09:10.841Z,55.20
2019-03-30T08:11:42.325Z,52.53
2019-03-30T08:14:15.408Z,57.77
2019-03-30T08:16:46.668Z,60.92
2019-03-30T08:19:17.803Z,59.48
2019-03-30T08:21:49.319Z,65.50
2019-03-30T08:24:27.535Z,65.05
2019-03-30T08:26:59.620Z,58.78
2019-03-30T08:29:31.769Z,58.63
2019-03-30T08:32:03.011Z,64.40
2019-03-30T08:34:37.045Z,56.77
2019-03-30T08:37:08.404Z,63.48
2019-03-30T08:39:54.302Z,58.13
2019-03-30T08:42:30.506Z,61.88
2019-03-30T08:45:02.132Z,60.08
2019-03-30T08:47:33.474Z,57.67
2019-03-30T08:50:06.278Z,55.20
2019-03-30T08:52:37.959Z,51.10
2019-03-30T08:55:09.710Z,49.73
2019-03-30T08:57:41.473Z,51.53
2019-03-30T09:00:13.035Z,51.92
2019-03-30T09:02:44.217Z,55.88
2019-03-30T09:05:15.520Z,51.68
2019-03-30T09:07:46.688Z,53.55
2019-03-30T09:10:18.048Z,50.88
2019-03-30T09:12:49.131Z,45.98
2019-03-30T09:15:20.268Z,41.37
2019-03-30T09:17:53.465Z,38.92
2019-03-30T09:20:24.846Z,38.65
2019-03-30T09:22:59.596Z,31.33
2019-03-30T09:25:31.343Z,29.03
2019-03-30T09:28:04.393Z,30.55
2019-03-30T09:30:36.171Z,34.13
2019-03-30T09:33:07.386Z,31.50
2019-03-30T09:35:38.850Z,30.92
2019-03-30T09:38:14.647Z,35.17
2019-03-30T09:40:44.469Z,38.58
2019-03-30T09:43:15.630Z,39.27
2019-03-30T09:45:47.240Z,42.60
2019-03-30T09:48:18.770Z,37.33
2019-03-30T09:50:50.128Z,41.37
2019-03-30T09:53:21.680Z,35.78
2019-03-30T09:55:57.738Z,29.98
2019-03-30T09:58:26.617Z,30.30
2019-03-30T10:00:58.626Z,30.95
2019-03-30T10:03:29.707Z,37.30
2019-03-30T10:06:01.403Z,36.85
2019-03-30T10:08:32.511Z,37.17
2019-03-30T10:11:06.019Z,37.93
2019-03-30T10:13:38.112Z,39.20
2019-03-30T10:16:09.546Z,36.88
2019-03-30T10:18:41.127Z,31.73
2019-03-30T10:21:12.483Z,29.82
2019-03-30T10:23:49.047Z,37.28
2019-03-30T10:26:17.117Z,33.47
2019-03-30T10:28:49.152Z,35.17
2019-03-30T10:31:23.347Z,33.00
2019-03-30T10:33:56.460Z,31.20
2019-03-30T10:36:28.294Z,33.13
2019-03-30T10:38:59.495Z,28.83
2019-03-30T10:41:30.649Z,29.92
2019-03-30T10:44:09.945Z,29.30
2019-03-30T10:46:41.451Z,28.37
2019-03-30T10:49:13.569Z,29.50
2019-03-30T10:51:45.848Z,28.20
2019-03-30T10:54:18.129Z,27.65
2019-03-30T10:56:49.673Z,26.27
2019-03-30T10:59:20.844Z,28.47
2019-03-30T11:01:53.089Z,29.63
2019-03-30T11:04:24.177Z,26.52
2019-03-30T11:06:55.213Z,29.00
2019-03-30T11:09:26.459Z,30.05
2019-03-30T11:11:57.580Z,25.72
2019-03-30T11:14:28.629Z,27.52
2019-03-30T11:17:04.785Z,26.57
2019-03-30T11:19:36.023Z,30.55
2019-03-30T11:22:07.118Z,24.95
2019-03-30T11:24:38.245Z,27.17
2019-03-30T11:27:09.348Z,31.20
2019-03-30T11:29:47.906Z,27.40
2019-03-30T11:32:21.235Z,27.52
2019-03-30T11:34:52.728Z,26.65
2019-03-30T11:37:23.838Z,27.70
2019-03-30T11:39:55.622Z,30.75
2019-03-30T11:42:26.731Z,28.90
2019-03-30T11:44:57.759Z,29.63
2019-03-30T11:47:28.995Z,27.20
2019-03-30T11:50:10.472Z,25.05
2019-03-30T11:52:52.256Z,25.32
2019-03-30T11:55:31.264Z,23.12
2019-03-30T11:58:03.157Z,23.05
2019-03-30T12:00:36.578Z,22.48
2019-03-30T12:03:10.109Z,20.37
2019-03-30T12:05:43.278Z,24.63
2019-03-30T12:08:14.418Z,23.45
2019-03-30T12:10:46.633Z,23.12
2019-03-30T12:13:20.019Z,27.48
2019-03-30T12:15:51.561Z,33.05
2019-03-30T12:18:22.908Z,22.75
2019-03-30T12:20:56.237Z,29.32
2019-03-30T12:23:27.340Z,24.70
2019-03-30T12:25:58.333Z,24.52
2019-03-30T12:28:29.896Z,23.98
2019-03-30T12:31:01.027Z,25.50
2019-03-30T12:33:34.879Z,24.65
2019-03-30T12:36:06.098Z,21.68
2019-03-30T12:38:37.269Z,23.27
2019-03-30T12:41:08.687Z,23.70
2019-03-30T12:43:39.994Z,22.22
2019-03-30T12:46:12.469Z,23.15
2019-03-30T12:48:43.750Z,18.92
2019-03-30T12:51:15.479Z,19.62
2019-03-30T12:53:51.013Z,20.67
2019-03-30T12:56:22.369Z,19.67
2019-03-30T12:58:53.724Z,20.30
2019-03-30T13:01:27.089Z,18.82
2019-03-30T13:03:58.412Z,20.37
2019-03-30T13:06:29.946Z,19.48
2019-03-30T13:09:01.517Z,18.98
2019-03-30T13:11:33.246Z,16.45
2019-03-30T13:14:04.331Z,18.92
2019-03-30T13:16:35.999Z,17.87
2019-03-30T13:19:07.180Z,19.02
2019-03-30T13:21:51.844Z,19.48
2019-03-30T13:24:11.737Z,18.33
2019-03-30T13:26:43.177Z,19.10
2019-03-30T13:29:14.933Z,20.60
2019-03-30T13:31:46.562Z,17.90
2019-03-30T13:34:17.683Z,20.80
2019-03-30T13:36:48.811Z,19.85
2019-03-30T13:39:20.298Z,17.15
2019-03-30T13:41:51.559Z,19.93
2019-03-30T13:44:23.303Z,19.23
2019-03-30T13:46:54.381Z,17.07
2019-03-30T13:49:25.841Z,17.50
2019-03-30T13:51:57.138Z,13.23
2019-03-30T13:54:28.715Z,13.57
2019-03-30T13:57:00.790Z,13.93
2019-03-30T13:59:32.017Z,14.23
2019-03-30T14:02:03.214Z,15.28
2019-03-30T14:04:35.030Z,15.18
2019-03-30T14:07:07.256Z,15.10
2019-03-30T14:09:50.786Z,14.30
2019-03-30T14:12:30.040Z,15.43
2019-03-30T14:15:01.965Z,13.80
2019-03-30T14:17:33.433Z,16.40
2019-03-30T14:20:05.159Z,11.68
2019-03-30T14:22:36.307Z,11.07
2019-03-30T14:25:08.251Z,11.00
2019-03-30T14:27:40.777Z,11.93
2019-03-30T14:30:13.168Z,12.07
2019-03-30T14:32:44.578Z,12.45
2019-03-30T14:35:15.664Z,13.40
2019-03-30T14:37:47.590Z,14.73
2019-03-30T14:40:18.740Z,10.83
2019-03-30T14:42:51.220Z,11.40
2019-03-30T14:45:22.852Z,14.50
2019-03-30T14:47:57.656Z,12.60
2019-03-30T14:50:27.536Z,14.58
2019-03-30T14:52:58.783Z,9.08
2019-03-30T14:55:30.371Z,11.18
2019-03-30T14:58:01.539Z,11.20
2019-03-30T15:00:34.085Z,9.88
2019-03-30T15:03:05.177Z,10.13
2019-03-30T15:05:37.572Z,9.78
2019-03-30T15:08:10.981Z,9.17
2019-03-30T15:10:42.665Z,9.28
2019-03-30T15:13:15.032Z,12.50
2019-03-30T15:15:50.222Z,11.65
2019-03-30T15:18:23.382Z,10.05
2019-03-30T15:20:57.674Z,10.53
2019-03-30T15:23:29.266Z,10.82
2019-03-30T15:26:00.879Z,9.28
2019-03-30T15:28:32.513Z,10.70
2019-03-30T15:31:08.777Z,12.98
2019-03-30T15:33:40.295Z,10.30
2019-03-30T15:36:11.790Z,10.98
2019-03-30T15:38:46.882Z,14.15
2019-03-30T15:41:18.206Z,9.30
2019-03-30T15:43:51.938Z,13.70
2019-03-30T15:46:23.379Z,10.15
2019-03-30T15:48:55.190Z,11.15
2019-03-30T15:51:26.419Z,10.50
2019-03-30T15:53:57.816Z,11.73
2019-03-30T15:56:32.601Z,10.90
2019-03-30T15:59:04.443Z,11.12
2019-03-30T16:01:36.268Z,11.80
2019-03-30T16:04:08.363Z,11.95
2019-03-30T16:06:40.356Z,11.68
2019-03-30T16:09:12.157Z,11.53
2019-03-30T16:11:43.821Z,13.35
2019-03-30T16:14:16.096Z,12.15
2019-03-30T16:16:48.179Z,12.58
2019-03-30T16:19:19.360Z,12.03
2019-03-30T16:21:51.153Z,11.20
2019-03-30T16:24:22.918Z,13.67
2019-03-30T16:26:55.322Z,12.70
2019-03-30T16:29:32.866Z,12.73
2019-03-30T16:32:04.231Z,13.43
2019-03-30T16:34:35.806Z,13.88
2019-03-30T16:37:06.879Z,11.88
2019-03-30T16:39:37.903Z,11.53
2019-03-30T16:42:09.173Z,11.95
2019-03-30T16:44:41.213Z,11.28
2019-03-30T16:47:12.700Z,17.80
2019-03-30T16:49:45.742Z,13.00
2019-03-30T16:52:20.109Z,11.77
2019-03-30T16:55:02.177Z,14.13
2019-03-30T16:57:44.285Z,17.67
2019-03-30T17:00:17.769Z,12.80
2019-03-30T17:02:56.720Z,14.90
2019-03-30T17:05:28.083Z,14.07
2019-03-30T17:07:59.543Z,16.00
2019-03-30T17:10:31.055Z,13.48
2019-03-30T17:13:05.383Z,13.70
2019-03-30T17:15:41.175Z,13.78
2019-03-30T17:18:13.541Z,12.68
2019-03-30T17:20:44.764Z,15.23
2019-03-30T17:23:16.309Z,12.47
2019-03-30T17:25:50.385Z,10.75
2019-03-30T17:28:29.809Z,13.13
2019-03-30T17:31:12.714Z,12.45
2019-03-30T17:33:46.847Z,14.85
2019-03-30T17:36:19.950Z,16.05
2019-03-30T17:38:54.044Z,21.05
2019-03-30T17:41:25.800Z,13.55
2019-03-30T17:44:03.732Z,16.90
2019-03-30T17:46:31.061Z,18.07
2019-03-30T17:49:02.235Z,16.62
2019-03-30T17:51:35.701Z,19.77
2019-03-30T17:54:07.236Z,21.90
2019-03-30T17:56:46.121Z,16.47
2019-03-30T17:59:23.723Z,18.52
2019-03-30T18:01:54.559Z,17.00
2019-03-30T18:04:28.772Z,19.90
2019-03-30T18:07:04.646Z,18.67
2019-03-30T18:09:36.971Z,17.67
2019-03-30T18:12:10.209Z,18.95
2019-03-30T18:14:41.597Z,16.80
2019-03-30T18:17:13.157Z,21.15
2019-03-30T18:19:44.500Z,20.05
2019-03-30T18:22:15.984Z,18.13
2019-03-30T18:24:47.810Z,19.33
2019-03-30T18:27:21.159Z,23.42
2019-03-30T18:29:52.401Z,23.47
2019-03-30T18:32:23.927Z,17.23
2019-03-30T18:34:55.895Z,18.82
2019-03-30T18:37:28.472Z,18.92
2019-03-30T18:40:00.276Z,15.53
2019-03-30T18:42:32.120Z,18.62
2019-03-30T18:45:03.783Z,18.70
2019-03-30T18:47:35.452Z,20.05
2019-03-30T18:50:07.809Z,19.30
2019-03-30T18:52:39.058Z,22.70
2019-03-30T18:55:13.279Z,20.65
2019-03-30T18:57:44.555Z,20.32
2019-03-30T19:00:20.406Z,21.00
2019-03-30T19:02:51.727Z,20.30
2019-03-30T19:05:24.076Z,21.40
2019-03-30T19:07:55.349Z,22.22
2019-03-30T19:10:26.875Z,20.63
2019-03-30T19:12:59.014Z,21.87
2019-03-30T19:15:49.477Z,24.13
2019-03-30T19:18:35.280Z,21.27
2019-03-30T19:21:10.761Z,19.90
2019-03-30T19:23:42.034Z,20.97
2019-03-30T19:26:13.562Z,19.75
2019-03-30T19:28:55.531Z,21.82
2019-03-30T19:31:19.611Z,22.13
2019-03-30T19:33:51.593Z,25.55
2019-03-30T19:36:23.555Z,20.08
2019-03-30T19:38:54.967Z,22.10
2019-03-30T19:41:28.158Z,25.40
2019-03-30T19:43:59.947Z,21.60
2019-03-30T19:46:31.222Z,20.37
2019-03-30T19:49:04.195Z,22.82
2019-03-30T19:51:35.403Z,25.02
2019-03-30T19:54:06.547Z,24.40
2019-03-30T19:56:38.311Z,26.52
2019-03-30T19:59:11.295Z,23.73
2019-03-30T20:01:43.511Z,23.60
2019-03-30T20:04:18.245Z,21.93
2019-03-30T20:06:54.267Z,27.73
2019-03-30T20:09:25.751Z,24.57
2019-03-30T20:12:00.481Z,25.02
2019-03-30T20:14:33.492Z,26.65
2019-03-30T20:17:05.640Z,25.10
2019-03-30T20:19:39.678Z,22.67
2019-03-30T20:22:12.010Z,25.32
2019-03-30T20:24:43.486Z,21.20
2019-03-30T20:27:15.295Z,25.95
2019-03-30T20:29:46.472Z,23.83
2019-03-30T20:32:18.608Z,26.30
2019-03-30T20:34:52.006Z,23.35
2019-03-30T20:37:23.116Z,22.50
2019-03-30T20:39:54.711Z,23.50
2019-03-30T20:42:25.848Z,22.30
2019-03-30T20:44:58.746Z,24.82
2019-03-30T20:47:30.371Z,22.67
2019-03-30T20:50:01.771Z,20.17
2019-03-30T20:52:33.289Z,23.00
2019-03-30T20:55:05.062Z,21.68
2019-03-30T20:57:36.599Z,21.77
2019-03-30T21:00:09.003Z,21.73
2019-03-30T21:02:40.238Z,21.93
2019-03-30T21:05:12.183Z,21.00
2019-03-30T21:07:43.350Z,20.72
2019-03-30T21:10:14.735Z,21.87
2019-03-30T21:12:45.963Z,21.15
2019-03-30T21:15:17.577Z,19.65
2019-03-30T21:17:49.326Z,18.82
2019-03-30T21:20:20.504Z,21.40
2019-03-30T21:22:51.656Z,20.52
2019-03-30T21:25:22.947Z,20.57
2019-03-30T21:27:54.402Z,18.57
2019-03-30T21:30:25.904Z,18.77
2019-03-30T21:32:57.474Z,20.10
2019-03-30T21:35:29.759Z,19.50
2019-03-30T21:38:00.917Z,20.77
2019-03-30T21:40:32.072Z,19.42
2019-03-30T21:43:03.664Z,21.00
2019-03-30T21:45:35.418Z,19.07
2019-03-30T21:48:07.039Z,26.27
2019-03-30T21:50:38.310Z,22.87
2019-03-30T21:53:09.488Z,18.85
2019-03-30T21:55:41.556Z,25.27
2019-03-30T21:58:12.741Z,23.02
2019-03-30T22:00:44.043Z,22.00
2019-03-30T22:03:15.313Z,20.82
2019-03-30T22:05:46.883Z,20.48
2019-03-30T22:08:18.395Z,19.98
2019-03-30T22:10:49.583Z,20.67
2019-03-30T22:13:21.755Z,19.37
2019-03-30T22:15:52.847Z,21.53
2019-03-30T22:18:24.403Z,20.13
2019-03-30T22:20:56.413Z,19.12
2019-03-30T22:23:27.682Z,20.05
2019-03-30T22:25:58.820Z,20.88
2019-03-30T22:28:29.931Z,19.20
2019-03-30T22:31:02.035Z,18.73
2019-03-30T22:33:33.385Z,18.25
2019-03-30T22:36:07.572Z,22.48
2019-03-30T22:38:39.445Z,19.48
2019-03-30T22:41:10.805Z,22.03
2019-03-30T22:43:41.949Z,20.10
2019-03-30T22:46:13.518Z,20.08
2019-03-30T22:48:44.614Z,22.62
2019-03-30T22:51:16.077Z,20.65
2019-03-30T22:53:48.194Z,20.90
2019-03-30T22:56:19.892Z,21.73
2019-03-30T22:58:51.154Z,20.23
2019-03-30T23:01:22.924Z,19.52
2019-03-30T23:03:54.194Z,22.07
2019-03-30T23:06:25.333Z,22.00
2019-03-30T23:08:57.706Z,20.63
2019-03-30T23:11:28.819Z,19.82
2019-03-30T23:13:59.947Z,19.70
2019-03-30T23:16:31.037Z,22.40
2019-03-30T23:19:02.569Z,21.00
2019-03-30T23:21:34.052Z,20.75
2019-03-30T23:24:05.557Z,19.77
2019-03-30T23:26:36.633Z,21.30
2019-03-30T23:29:07.975Z,22.37
2019-03-30T23:31:39.180Z,23.77
2019-03-30T23:34:10.293Z,21.53
2019-03-30T23:36:41.480Z,20.70
2019-03-30T23:39:12.988Z,21.00
2019-03-30T23:41:44.344Z,23.12
2019-03-30T23:44:15.518Z,21.52
2019-03-30T23:46:46.785Z,21.35
2019-03-30T23:49:18.245Z,23.47
2019-03-30T23:51:49.490Z,23.60
2019-03-30T23:54:21.298Z,22.40
2019-03-30T23:56:53.147Z,19.32
2019-03-30T23:59:25.035Z,22.52
